sensor_id;sensor_type;location;lat;lon;timestamp;pressure;altitude;pressure_sealevel;temperature;humidity
4410;BME280;2218;51.408;7.208;2022-07-29T00:00:59;99783.63;;;24.10;44.49
4410;BME280;2218;51.408;7.208;2022-07-29T00:03:26;99785.31;;;24.11;44.75
4410;BME280;2218;51.408;7.208;2022-07-29T00:05:53;99780.00;;;24.11;44.71
4410;BME280;2218;51.408;7.208;2022-07-29T00:08:20;99782.78;;;24.09;44.75
4410;BME280;2218;51.408;7.208;2022-07-29T00:10:48;99781.97;;;24.09;44.87
4410;BME280;2218;51.408;7.208;2022-07-29T00:13:16;99788.94;;;24.10;44.60
4410;BME280;2218;51.408;7.208;2022-07-29T00:15:43;99788.94;;;24.10;44.91
4410;BME280;2218;51.408;7.208;2022-07-29T00:18:10;99782.78;;;24.09;44.34
4410;BME280;2218;51.408;7.208;2022-07-29T00:20:37;99780.28;;;24.08;44.82
4410;BME280;2218;51.408;7.208;2022-07-29T00:23:04;99774.97;;;24.08;44.67
4410;BME280;2218;51.408;7.208;2022-07-29T00:25:31;99767.00;;;24.08;44.72
4410;BME280;2218;51.408;7.208;2022-07-29T00:27:57;99771.34;;;24.09;44.84
4410;BME280;2218;51.408;7.208;2022-07-29T00:30:26;99769.66;;;24.08;45.01
4410;BME280;2218;51.408;7.208;2022-07-29T00:32:53;99762.66;;;24.07;44.65
4410;BME280;2218;51.408;7.208;2022-07-29T00:35:20;99759.03;;;24.08;44.35
4410;BME280;2218;51.408;7.208;2022-07-29T00:38:05;99759.03;;;24.08;44.71
4410;BME280;2218;51.408;7.208;2022-07-29T00:40:32;99759.03;;;24.08;44.46
4410;BME280;2218;51.408;7.208;2022-07-29T00:42:59;99759.03;;;24.08;44.71
4410;BME280;2218;51.408;7.208;2022-07-29T00:45:28;99752.03;;;24.07;44.74
4410;BME280;2218;51.408;7.208;2022-07-29T00:47:56;99739.75;;;24.06;44.56
4410;BME280;2218;51.408;7.208;2022-07-29T00:50:24;99741.41;;;24.07;44.78
4410;BME280;2218;51.408;7.208;2022-07-29T00:52:52;99744.06;;;24.07;44.37
4410;BME280;2218;51.408;7.208;2022-07-29T00:55:19;99738.75;;;24.07;44.65
4410;BME280;2218;51.408;7.208;2022-07-29T00:57:47;99729.94;;;24.06;44.56
4410;BME280;2218;51.408;7.208;2022-07-29T01:00:18;99724.66;;;24.06;44.74
4410;BME280;2218;51.408;7.208;2022-07-29T01:02:47;99723.81;;;24.06;45.18
4410;BME280;2218;51.408;7.208;2022-07-29T01:05:17;99721.16;;;24.06;45.02
4410;BME280;2218;51.408;7.208;2022-07-29T01:07:46;99722.97;;;24.05;45.28
4410;BME280;2218;51.408;7.208;2022-07-29T01:10:15;99715.00;;;24.05;45.19
4410;BME280;2218;51.408;7.208;2022-07-29T01:12:46;99716.81;;;24.05;44.83
4410;BME280;2218;51.408;7.208;2022-07-29T01:15:14;99714.16;;;24.05;44.97
4410;BME280;2218;51.408;7.208;2022-07-29T01:17:52;99717.66;;;24.05;44.66
4410;BME280;2218;51.408;7.208;2022-07-29T01:20:28;99707.03;;;24.05;44.97
4410;BME280;2218;51.408;7.208;2022-07-29T01:23:40;99699.22;;;24.04;45.03
4410;BME280;2218;51.408;7.208;2022-07-29T01:26:42;99699.22;;;24.04;44.74
4410;BME280;2218;51.408;7.208;2022-07-29T01:29:22;99705.38;;;24.04;44.87
4410;BME280;2218;51.408;7.208;2022-07-29T01:31:57;99697.56;;;24.03;45.22
4410;BME280;2218;51.408;7.208;2022-07-29T01:34:33;99701.88;;;24.04;44.89
4410;BME280;2218;51.408;7.208;2022-07-29T01:37:09;99698.38;;;24.03;44.82
4410;BME280;2218;51.408;7.208;2022-07-29T01:39:43;99692.25;;;24.03;44.85
4410;BME280;2218;51.408;7.208;2022-07-29T01:42:24;99696.72;;;24.02;45.08
4410;BME280;2218;51.408;7.208;2022-07-29T01:45:00;99694.06;;;24.02;44.98
4410;BME280;2218;51.408;7.208;2022-07-29T01:47:37;99695.03;;;24.01;44.93
4410;BME280;2218;51.408;7.208;2022-07-29T01:50:10;99691.41;;;24.02;44.85
4410;BME280;2218;51.408;7.208;2022-07-29T01:52:46;99693.19;;;24.02;45.29
4410;BME280;2218;51.408;7.208;2022-07-29T01:55:17;99683.56;;;24.01;44.62
4410;BME280;2218;51.408;7.208;2022-07-29T01:57:48;99684.41;;;24.01;45.35
4410;BME280;2218;51.408;7.208;2022-07-29T02:00:18;99672.94;;;24.01;45.19
4410;BME280;2218;51.408;7.208;2022-07-29T02:02:48;99668.47;;;24.01;45.24
4410;BME280;2218;51.408;7.208;2022-07-29T02:05:19;99679.09;;;24.01;45.20
4410;BME280;2218;51.408;7.208;2022-07-29T02:07:50;99679.09;;;24.01;44.83
4410;BME280;2218;51.408;7.208;2022-07-29T02:10:24;99680.22;;;23.98;44.93
4410;BME280;2218;51.408;7.208;2022-07-29T02:12:54;99687.19;;;23.99;44.93
4410;BME280;2218;51.408;7.208;2022-07-29T02:15:24;99681.88;;;23.99;44.98
4410;BME280;2218;51.408;7.208;2022-07-29T02:17:58;99681.88;;;23.99;45.10
4410;BME280;2218;51.408;7.208;2022-07-29T02:20:28;99674.91;;;23.98;45.01
4410;BME280;2218;51.408;7.208;2022-07-29T02:22:58;99673.25;;;23.97;45.36
4410;BME280;2218;51.408;7.208;2022-07-29T02:25:27;99664.28;;;23.98;44.64
4410;BME280;2218;51.408;7.208;2022-07-29T02:27:55;99657.31;;;23.97;45.16
4410;BME280;2218;51.408;7.208;2022-07-29T02:30:26;99653.69;;;23.98;45.11
4410;BME280;2218;51.408;7.208;2022-07-29T02:32:55;99649.34;;;23.97;45.33
4410;BME280;2218;51.408;7.208;2022-07-29T02:35:23;99646.69;;;23.97;45.24
4410;BME280;2218;51.408;7.208;2022-07-29T02:37:52;99646.69;;;23.97;45.10
4410;BME280;2218;51.408;7.208;2022-07-29T02:40:37;99652.00;;;23.97;44.96
4410;BME280;2218;51.408;7.208;2022-07-29T02:43:06;99660.91;;;23.96;44.80
4410;BME280;2218;51.408;7.208;2022-07-29T02:45:37;99664.44;;;23.97;45.34
4410;BME280;2218;51.408;7.208;2022-07-29T02:48:10;99665.38;;;23.96;45.41
4410;BME280;2218;51.408;7.208;2022-07-29T02:50:47;99664.56;;;23.95;45.02
4410;BME280;2218;51.408;7.208;2022-07-29T02:53:22;99667.94;;;23.97;44.94
4410;BME280;2218;51.408;7.208;2022-07-29T02:55:56;99659.25;;;23.95;45.04
4410;BME280;2218;51.408;7.208;2022-07-29T02:58:27;99671.53;;;23.96;45.11
4410;BME280;2218;51.408;7.208;2022-07-29T03:01:01;99672.53;;;23.95;45.08
4410;BME280;2218;51.408;7.208;2022-07-29T03:03:34;99661.22;;;23.93;44.83
4410;BME280;2218;51.408;7.208;2022-07-29T03:06:03;99664.69;;;23.94;45.01
4410;BME280;2218;51.408;7.208;2022-07-29T03:08:33;99663.88;;;23.93;45.18
4410;BME280;2218;51.408;7.208;2022-07-29T03:11:01;99655.91;;;23.93;45.06
4410;BME280;2218;51.408;7.208;2022-07-29T03:13:30;99647.94;;;23.93;45.27
4410;BME280;2218;51.408;7.208;2022-07-29T03:15:59;99655.91;;;23.93;45.06
4410;BME280;2218;51.408;7.208;2022-07-29T03:18:27;99650.59;;;23.93;45.14
4410;BME280;2218;51.408;7.208;2022-07-29T03:20:55;99655.06;;;23.93;45.41
4410;BME280;2218;51.408;7.208;2022-07-29T03:23:23;99655.06;;;23.93;44.92
4410;BME280;2218;51.408;7.208;2022-07-29T03:25:53;99656.88;;;23.92;45.06
4410;BME280;2218;51.408;7.208;2022-07-29T03:28:21;99649.75;;;23.93;45.42
4410;BME280;2218;51.408;7.208;2022-07-29T03:30:49;99647.09;;;23.93;44.96
4410;BME280;2218;51.408;7.208;2022-07-29T03:33:17;99645.44;;;23.92;44.95
4410;BME280;2218;51.408;7.208;2022-07-29T03:35:44;99646.38;;;23.91;45.52
4410;BME280;2218;51.408;7.208;2022-07-29T03:38:11;99646.28;;;23.92;45.15
4410;BME280;2218;51.408;7.208;2022-07-29T03:40:45;99649.88;;;23.91;44.93
4410;BME280;2218;51.408;7.208;2022-07-29T03:43:17;99642.78;;;23.92;45.29
4410;BME280;2218;51.408;7.208;2022-07-29T03:45:49;99647.22;;;23.91;44.85
4410;BME280;2218;51.408;7.208;2022-07-29T03:48:21;99657.84;;;23.91;45.49
4410;BME280;2218;51.408;7.208;2022-07-29T03:50:50;99676.41;;;23.91;44.90
4410;BME280;2218;51.408;7.208;2022-07-29T03:53:18;99684.38;;;23.91;45.41
4410;BME280;2218;51.408;7.208;2022-07-29T03:55:50;99695.00;;;23.91;45.42
4410;BME280;2218;51.408;7.208;2022-07-29T03:58:19;99685.38;;;23.90;45.38
4410;BME280;2218;51.408;7.208;2022-07-29T04:00:47;99684.53;;;23.90;45.20
4410;BME280;2218;51.408;7.208;2022-07-29T04:03:14;99689.69;;;23.91;45.53
4410;BME280;2218;51.408;7.208;2022-07-29T04:05:42;99703.94;;;23.90;45.13
4410;BME280;2218;51.408;7.208;2022-07-29T04:08:09;99710.91;;;23.91;44.91
4410;BME280;2218;51.408;7.208;2022-07-29T04:10:38;99713.56;;;23.91;45.34
4410;BME280;2218;51.408;7.208;2022-07-29T04:13:05;99705.63;;;23.91;45.16
4410;BME280;2218;51.408;7.208;2022-07-29T04:15:32;99710.09;;;23.91;44.95
4410;BME280;2218;51.408;7.208;2022-07-29T04:17:59;99726.16;;;23.89;45.22
4410;BME280;2218;51.408;7.208;2022-07-29T04:20:26;99728.66;;;23.91;44.63
4410;BME280;2218;51.408;7.208;2022-07-29T04:22:54;99719.88;;;23.90;44.83
4410;BME280;2218;51.408;7.208;2022-07-29T04:25:21;99707.56;;;23.89;44.70
4410;BME280;2218;51.408;7.208;2022-07-29T04:27:48;99734.97;;;23.90;44.58
4410;BME280;2218;51.408;7.208;2022-07-29T04:30:28;99741.09;;;23.90;44.63
4410;BME280;2218;51.408;7.208;2022-07-29T04:32:55;99731.31;;;23.91;45.03
4410;BME280;2218;51.408;7.208;2022-07-29T04:35:22;99730.47;;;23.90;44.63
4410;BME280;2218;51.408;7.208;2022-07-29T04:37:49;99751.72;;;23.90;44.66
4410;BME280;2218;51.408;7.208;2022-07-29T04:40:18;99747.25;;;23.91;44.68
4410;BME280;2218;51.408;7.208;2022-07-29T04:42:46;99728.81;;;23.89;44.78
4410;BME280;2218;51.408;7.208;2022-07-29T04:45:13;99749.06;;;23.90;44.78
4410;BME280;2218;51.408;7.208;2022-07-29T04:47:41;99753.53;;;23.90;44.53
4410;BME280;2218;51.408;7.208;2022-07-29T04:50:08;99743.75;;;23.90;44.42
4410;BME280;2218;51.408;7.208;2022-07-29T04:52:36;99744.75;;;23.89;44.70
4410;BME280;2218;51.408;7.208;2022-07-29T04:55:05;99759.81;;;23.89;44.30
4410;BME280;2218;51.408;7.208;2022-07-29T04:57:34;99768.63;;;23.89;44.41
4410;BME280;2218;51.408;7.208;2022-07-29T05:00:02;99771.28;;;23.89;44.52
4410;BME280;2218;51.408;7.208;2022-07-29T05:02:29;99769.47;;;23.90;44.59
4410;BME280;2218;51.408;7.208;2022-07-29T05:04:56;99759.81;;;23.89;44.56
4410;BME280;2218;51.408;7.208;2022-07-29T05:07:23;99751.03;;;23.88;44.52
4410;BME280;2218;51.408;7.208;2022-07-29T05:09:50;99751.88;;;23.89;44.42
4410;BME280;2218;51.408;7.208;2022-07-29T05:12:18;99731.63;;;23.88;44.21
4410;BME280;2218;51.408;7.208;2022-07-29T05:14:47;99732.44;;;23.88;44.41
4410;BME280;2218;51.408;7.208;2022-07-29T05:17:13;99727.13;;;23.88;44.46
4410;BME280;2218;51.408;7.208;2022-07-29T05:19:40;99722.81;;;23.87;44.38
4410;BME280;2218;51.408;7.208;2022-07-29T05:22:07;99728.13;;;23.87;44.27
4410;BME280;2218;51.408;7.208;2022-07-29T05:24:34;99728.13;;;23.87;44.81
4410;BME280;2218;51.408;7.208;2022-07-29T05:27:01;99744.03;;;23.87;44.61
4410;BME280;2218;51.408;7.208;2022-07-29T05:29:28;99737.88;;;23.87;44.53
4410;BME280;2218;51.408;7.208;2022-07-29T05:31:57;99729.91;;;23.87;44.57
4410;BME280;2218;51.408;7.208;2022-07-29T05:34:24;99741.38;;;23.87;44.78
4410;BME280;2218;51.408;7.208;2022-07-29T05:36:51;99736.09;;;23.87;44.57
4410;BME280;2218;51.408;7.208;2022-07-29T05:39:19;99739.69;;;23.86;44.86
4410;BME280;2218;51.408;7.208;2022-07-29T05:41:46;99735.22;;;23.87;44.96
4410;BME280;2218;51.408;7.208;2022-07-29T05:44:13;99731.72;;;23.86;44.18
4410;BME280;2218;51.408;7.208;2022-07-29T05:46:40;99739.69;;;23.86;44.33
4410;BME280;2218;51.408;7.208;2022-07-29T05:49:08;99730.78;;;23.87;44.38
4410;BME280;2218;51.408;7.208;2022-07-29T05:51:36;99734.25;;;23.88;44.94
4410;BME280;2218;51.408;7.208;2022-07-29T05:54:03;99730.78;;;23.87;44.95
4410;BME280;2218;51.408;7.208;2022-07-29T05:56:30;99736.09;;;23.87;45.09
4410;BME280;2218;51.408;7.208;2022-07-29T05:58:57;99741.38;;;23.87;44.37
4410;BME280;2218;51.408;7.208;2022-07-29T06:01:24;99745.00;;;23.86;44.88
4410;BME280;2218;51.408;7.208;2022-07-29T06:03:51;99751.28;;;23.85;44.64
4410;BME280;2218;51.408;7.208;2022-07-29T06:06:20;99758.16;;;23.88;44.86
4410;BME280;2218;51.408;7.208;2022-07-29T06:08:47;99753.94;;;23.85;44.44
4410;BME280;2218;51.408;7.208;2022-07-29T06:11:14;99761.75;;;23.87;44.86
4410;BME280;2218;51.408;7.208;2022-07-29T06:13:41;99758.25;;;23.86;44.64
4410;BME280;2218;51.408;7.208;2022-07-29T06:16:07;99753.94;;;23.85;44.78
4410;BME280;2218;51.408;7.208;2022-07-29T06:18:35;99756.59;;;23.85;45.05
4410;BME280;2218;51.408;7.208;2022-07-29T06:21:07;99760.91;;;23.86;44.62
4410;BME280;2218;51.408;7.208;2022-07-29T06:23:36;99764.56;;;23.85;44.81
4410;BME280;2218;51.408;7.208;2022-07-29T06:26:04;99766.22;;;23.86;45.02
4410;BME280;2218;51.408;7.208;2022-07-29T06:28:32;99769.88;;;23.85;45.07
4410;BME280;2218;51.408;7.208;2022-07-29T06:30:59;99769.03;;;23.85;45.16
4410;BME280;2218;51.408;7.208;2022-07-29T06:33:26;99760.09;;;23.86;45.02
4410;BME280;2218;51.408;7.208;2022-07-29T06:35:53;99764.56;;;23.85;44.77
4410;BME280;2218;51.408;7.208;2022-07-29T06:38:21;99763.72;;;23.85;44.94
4410;BME280;2218;51.408;7.208;2022-07-29T06:40:49;99764.56;;;23.85;45.20
4410;BME280;2218;51.408;7.208;2022-07-29T06:43:34;99764.56;;;23.85;45.19
4410;BME280;2218;51.408;7.208;2022-07-29T06:46:06;99764.56;;;23.85;45.19
4410;BME280;2218;51.408;7.208;2022-07-29T06:48:34;99763.72;;;23.85;45.23
4410;BME280;2218;51.408;7.208;2022-07-29T06:51:03;99764.56;;;23.85;44.96
4410;BME280;2218;51.408;7.208;2022-07-29T06:53:32;99764.56;;;23.85;44.94
4410;BME280;2218;51.408;7.208;2022-07-29T06:56:02;99768.19;;;23.84;45.28
4410;BME280;2218;51.408;7.208;2022-07-29T06:58:31;99761.22;;;23.83;45.48
4410;BME280;2218;51.408;7.208;2022-07-29T07:01:01;99763.72;;;23.85;45.10
4410;BME280;2218;51.408;7.208;2022-07-29T07:03:29;99766.38;;;23.85;45.23
4410;BME280;2218;51.408;7.208;2022-07-29T07:05:56;99770.84;;;23.84;45.31
4410;BME280;2218;51.408;7.208;2022-07-29T07:08:23;99768.19;;;23.84;45.25
4410;BME280;2218;51.408;7.208;2022-07-29T07:10:51;99775.16;;;23.85;45.16
4410;BME280;2218;51.408;7.208;2022-07-29T07:13:19;99780.47;;;23.85;45.02
4410;BME280;2218;51.408;7.208;2022-07-29T07:15:47;99786.63;;;23.86;45.15
4410;BME280;2218;51.408;7.208;2022-07-29T07:18:15;99782.16;;;23.86;45.31
4410;BME280;2218;51.408;7.208;2022-07-29T07:20:43;99786.63;;;23.86;45.46
4410;BME280;2218;51.408;7.208;2022-07-29T07:23:10;99781.19;;;23.87;44.90
4410;BME280;2218;51.408;7.208;2022-07-29T07:25:37;99775.91;;;23.87;45.36
4410;BME280;2218;51.408;7.208;2022-07-29T07:28:04;99777.69;;;23.87;44.98
4410;BME280;2218;51.408;7.208;2022-07-29T07:30:33;99789.16;;;23.87;45.44
4410;BME280;2218;51.408;7.208;2022-07-29T07:33:02;99780.22;;;23.88;45.22
4410;BME280;2218;51.408;7.208;2022-07-29T07:35:29;99785.53;;;23.88;45.29
4410;BME280;2218;51.408;7.208;2022-07-29T07:37:57;99789.16;;;23.87;45.66
4410;BME280;2218;51.408;7.208;2022-07-29T07:40:24;99778.56;;;23.87;45.03
4410;BME280;2218;51.408;7.208;2022-07-29T07:42:51;99781.19;;;23.87;45.45
4410;BME280;2218;51.408;7.208;2022-07-29T07:45:18;99789.16;;;23.87;45.45
4410;BME280;2218;51.408;7.208;2022-07-29T07:47:47;99792.66;;;23.88;45.71
4410;BME280;2218;51.408;7.208;2022-07-29T07:50:14;99790.84;;;23.88;45.15
4410;BME280;2218;51.408;7.208;2022-07-29T07:52:48;99795.31;;;23.88;45.58
4410;BME280;2218;51.408;7.208;2022-07-29T07:55:16;99796.16;;;23.88;45.16
4410;BME280;2218;51.408;7.208;2022-07-29T07:57:43;99796.16;;;23.88;45.51
4410;BME280;2218;51.408;7.208;2022-07-29T08:00:12;99785.53;;;23.88;45.37
4410;BME280;2218;51.408;7.208;2022-07-29T08:02:40;99781.91;;;23.89;45.54
4410;BME280;2218;51.408;7.208;2022-07-29T08:05:10;99787.22;;;23.89;45.60
4410;BME280;2218;51.408;7.208;2022-07-29T08:07:37;99799.50;;;23.90;45.08
4410;BME280;2218;51.408;7.208;2022-07-29T08:10:05;99799.50;;;23.90;45.53
4410;BME280;2218;51.408;7.208;2022-07-29T08:12:33;99797.81;;;23.89;45.17
4410;BME280;2218;51.408;7.208;2022-07-29T08:15:00;99797.81;;;23.89;45.60
4410;BME280;2218;51.408;7.208;2022-07-29T08:17:27;99799.50;;;23.90;45.58
4410;BME280;2218;51.408;7.208;2022-07-29T08:19:54;99796.84;;;23.90;45.63
4410;BME280;2218;51.408;7.208;2022-07-29T08:22:22;99800.34;;;23.91;45.63
4410;BME280;2218;51.408;7.208;2022-07-29T08:24:49;99799.50;;;23.90;45.64
4410;BME280;2218;51.408;7.208;2022-07-29T08:27:21;99804.69;;;23.92;45.44
4410;BME280;2218;51.408;7.208;2022-07-29T08:29:48;99802.16;;;23.90;45.56
4410;BME280;2218;51.408;7.208;2022-07-29T08:32:15;99803.81;;;23.91;45.39
4410;BME280;2218;51.408;7.208;2022-07-29T08:34:42;99805.53;;;23.92;45.45
4410;BME280;2218;51.408;7.208;2022-07-29T08:37:12;99802.88;;;23.92;45.41
4410;BME280;2218;51.408;7.208;2022-07-29T08:39:40;99792.25;;;23.92;45.78
4410;BME280;2218;51.408;7.208;2022-07-29T08:42:07;99800.22;;;23.92;45.62
4410;BME280;2218;51.408;7.208;2022-07-29T08:44:36;99792.25;;;23.92;45.47
4410;BME280;2218;51.408;7.208;2022-07-29T08:47:03;99783.31;;;23.93;45.85
4410;BME280;2218;51.408;7.208;2022-07-29T08:49:32;99790.44;;;23.93;45.99
4410;BME280;2218;51.408;7.208;2022-07-29T08:52:00;99790.44;;;23.93;45.21
4410;BME280;2218;51.408;7.208;2022-07-29T08:54:27;99793.94;;;23.93;45.83
4410;BME280;2218;51.408;7.208;2022-07-29T08:56:57;99804.53;;;23.93;45.64
4410;BME280;2218;51.408;7.208;2022-07-29T08:59:27;99794.78;;;23.94;45.66
4410;BME280;2218;51.408;7.208;2022-07-29T09:01:57;99795.59;;;23.94;45.35
4410;BME280;2218;51.408;7.208;2022-07-29T09:04:30;99789.47;;;23.94;45.63
4410;BME280;2218;51.408;7.208;2022-07-29T09:07:00;99797.28;;;23.95;45.53
4410;BME280;2218;51.408;7.208;2022-07-29T09:09:30;99806.22;;;23.94;45.34
4410;BME280;2218;51.408;7.208;2022-07-29T09:12:00;99808.72;;;23.96;45.67
4410;BME280;2218;51.408;7.208;2022-07-29T09:14:29;99810.44;;;23.97;45.67
4410;BME280;2218;51.408;7.208;2022-07-29T09:16:56;99800.91;;;23.94;45.94
4410;BME280;2218;51.408;7.208;2022-07-29T09:19:29;99804.25;;;23.96;45.62
4410;BME280;2218;51.408;7.208;2022-07-29T09:21:58;99806.91;;;23.96;45.22
4410;BME280;2218;51.408;7.208;2022-07-29T09:24:41;99814.88;;;23.96;45.68
4410;BME280;2218;51.408;7.208;2022-07-29T09:27:18;99809.56;;;23.96;45.42
4410;BME280;2218;51.408;7.208;2022-07-29T09:29:47;99798.13;;;23.96;45.45
4410;BME280;2218;51.408;7.208;2022-07-29T09:32:14;99793.66;;;23.96;45.93
4410;BME280;2218;51.408;7.208;2022-07-29T09:34:41;99793.66;;;23.96;45.42
4410;BME280;2218;51.408;7.208;2022-07-29T09:37:08;99793.66;;;23.96;45.42
4410;BME280;2218;51.408;7.208;2022-07-29T09:39:38;99791.84;;;23.97;45.25
4410;BME280;2218;51.408;7.208;2022-07-29T09:42:12;99789.19;;;23.97;45.84
4410;BME280;2218;51.408;7.208;2022-07-29T09:44:45;99783.03;;;23.96;45.37
4410;BME280;2218;51.408;7.208;2022-07-29T09:47:15;99784.72;;;23.97;45.64
4410;BME280;2218;51.408;7.208;2022-07-29T09:49:55;99781.09;;;23.98;45.66
4410;BME280;2218;51.408;7.208;2022-07-29T09:52:24;99775.94;;;23.97;45.80
4410;BME280;2218;51.408;7.208;2022-07-29T09:54:51;99772.41;;;23.96;45.37
4410;BME280;2218;51.408;7.208;2022-07-29T09:57:26;99768.91;;;23.96;45.63
4410;BME280;2218;51.408;7.208;2022-07-29T09:59:59;99772.41;;;23.96;45.69
4410;BME280;2218;51.408;7.208;2022-07-29T10:02:31;99758.28;;;23.96;45.61
4410;BME280;2218;51.408;7.208;2022-07-29T10:05:00;99766.25;;;23.96;45.76
4410;BME280;2218;51.408;7.208;2022-07-29T10:07:44;99768.91;;;23.96;45.61
4410;BME280;2218;51.408;7.208;2022-07-29T10:10:19;99772.41;;;23.96;45.50
4410;BME280;2218;51.408;7.208;2022-07-29T10:12:54;99766.25;;;23.96;45.69
4410;BME280;2218;51.408;7.208;2022-07-29T10:15:24;99775.94;;;23.97;45.95
4410;BME280;2218;51.408;7.208;2022-07-29T10:17:53;99770.72;;;23.95;45.63
4410;BME280;2218;51.408;7.208;2022-07-29T10:20:21;99780.38;;;23.96;46.06
4410;BME280;2218;51.408;7.208;2022-07-29T10:22:49;99783.03;;;23.96;45.69
4410;BME280;2218;51.408;7.208;2022-07-29T10:25:18;99780.38;;;23.96;45.76
4410;BME280;2218;51.408;7.208;2022-07-29T10:27:47;99784.72;;;23.97;46.12
4410;BME280;2218;51.408;7.208;2022-07-29T10:30:16;99783.03;;;23.96;45.73
4410;BME280;2218;51.408;7.208;2022-07-29T10:33:08;99791.00;;;23.96;45.87
4410;BME280;2218;51.408;7.208;2022-07-29T10:35:58;99782.19;;;23.96;45.98
4410;BME280;2218;51.408;7.208;2022-07-29T10:38:52;99791.00;;;23.96;45.55
4410;BME280;2218;51.408;7.208;2022-07-29T10:41:49;99790.16;;;23.96;46.23
4410;BME280;2218;51.408;7.208;2022-07-29T10:44:23;99796.28;;;23.96;45.83
4410;BME280;2218;51.408;7.208;2022-07-29T10:46:53;99791.97;;;23.95;45.75
4410;BME280;2218;51.408;7.208;2022-07-29T10:49:23;99791.97;;;23.95;46.17
4410;BME280;2218;51.408;7.208;2022-07-29T10:52:00;99791.97;;;23.95;45.77
4410;BME280;2218;51.408;7.208;2022-07-29T10:54:46;99789.31;;;23.95;45.83
4410;BME280;2218;51.408;7.208;2022-07-29T10:57:19;99790.16;;;23.96;46.28
4410;BME280;2218;51.408;7.208;2022-07-29T10:59:49;99790.28;;;23.94;46.00
4410;BME280;2218;51.408;7.208;2022-07-29T11:02:44;99784.97;;;23.94;45.66
4410;BME280;2218;51.408;7.208;2022-07-29T11:05:15;99787.50;;;23.96;45.57
4410;BME280;2218;51.408;7.208;2022-07-29T11:08:21;99782.34;;;23.94;46.30
4410;BME280;2218;51.408;7.208;2022-07-29T11:10:51;99781.34;;;23.95;45.84
4410;BME280;2218;51.408;7.208;2022-07-29T11:13:50;99787.63;;;23.94;45.81
4410;BME280;2218;51.408;7.208;2022-07-29T11:16:20;99795.59;;;23.94;45.87
4410;BME280;2218;51.408;7.208;2022-07-29T11:19:21;99784.97;;;23.94;45.92
4410;BME280;2218;51.408;7.208;2022-07-29T11:21:49;99779.69;;;23.94;46.02
4410;BME280;2218;51.408;7.208;2022-07-29T11:24:21;99778.69;;;23.95;45.83
4410;BME280;2218;51.408;7.208;2022-07-29T11:27:12;99784.97;;;23.94;46.22
4410;BME280;2218;51.408;7.208;2022-07-29T11:29:51;99783.31;;;23.93;46.13
4410;BME280;2218;51.408;7.208;2022-07-29T11:32:20;99792.94;;;23.94;45.65
4410;BME280;2218;51.408;7.208;2022-07-29T11:35:13;99792.94;;;23.94;46.03
4410;BME280;2218;51.408;7.208;2022-07-29T11:37:40;99793.94;;;23.93;46.02
4410;BME280;2218;51.408;7.208;2022-07-29T11:40:16;99784.97;;;23.94;45.95
4410;BME280;2218;51.408;7.208;2022-07-29T11:42:46;99784.16;;;23.94;46.25
4410;BME280;2218;51.408;7.208;2022-07-29T11:45:23;99783.31;;;23.93;46.05
4410;BME280;2218;51.408;7.208;2022-07-29T11:47:56;99778.00;;;23.93;45.80
4410;BME280;2218;51.408;7.208;2022-07-29T11:50:35;99778.00;;;23.93;46.22
4410;BME280;2218;51.408;7.208;2022-07-29T11:53:12;99778.84;;;23.94;46.20
4410;BME280;2218;51.408;7.208;2022-07-29T11:55:40;99774.50;;;23.93;46.18
4410;BME280;2218;51.408;7.208;2022-07-29T11:58:08;99778.00;;;23.93;46.33
4410;BME280;2218;51.408;7.208;2022-07-29T12:00:38;99780.66;;;23.93;46.19
4410;BME280;2218;51.408;7.208;2022-07-29T12:03:07;99778.84;;;23.94;46.18
4410;BME280;2218;51.408;7.208;2022-07-29T12:05:39;99782.34;;;23.94;46.31
4410;BME280;2218;51.408;7.208;2022-07-29T12:08:13;99782.34;;;23.94;46.09
4410;BME280;2218;51.408;7.208;2022-07-29T12:10:42;99784.00;;;23.95;46.30
4410;BME280;2218;51.408;7.208;2022-07-29T12:13:10;99779.69;;;23.94;46.30
4410;BME280;2218;51.408;7.208;2022-07-29T12:15:38;99781.34;;;23.95;46.33
4410;BME280;2218;51.408;7.208;2022-07-29T12:18:18;99783.03;;;23.96;46.23
4410;BME280;2218;51.408;7.208;2022-07-29T12:20:48;99782.19;;;23.96;46.20
4410;BME280;2218;51.408;7.208;2022-07-29T12:23:15;99786.66;;;23.95;46.07
4410;BME280;2218;51.408;7.208;2022-07-29T12:25:44;99790.28;;;23.94;46.39
4410;BME280;2218;51.408;7.208;2022-07-29T12:28:13;99797.28;;;23.95;46.48
4410;BME280;2218;51.408;7.208;2022-07-29T12:30:47;99791.97;;;23.95;46.14
4410;BME280;2218;51.408;7.208;2022-07-29T12:33:18;99790.28;;;23.94;46.15
4410;BME280;2218;51.408;7.208;2022-07-29T12:35:49;99791.00;;;23.96;45.90
4410;BME280;2218;51.408;7.208;2022-07-29T12:38:17;99793.66;;;23.96;46.20
4410;BME280;2218;51.408;7.208;2022-07-29T12:40:47;99793.66;;;23.96;45.98
4410;BME280;2218;51.408;7.208;2022-07-29T12:43:17;99796.28;;;23.96;46.10
4410;BME280;2218;51.408;7.208;2022-07-29T12:45:47;99794.50;;;23.97;46.12
4410;BME280;2218;51.408;7.208;2022-07-29T12:48:17;99786.53;;;23.97;46.17
4410;BME280;2218;51.408;7.208;2022-07-29T12:51:00;99788.34;;;23.96;46.37
4410;BME280;2218;51.408;7.208;2022-07-29T12:53:29;99790.03;;;23.97;46.17
4410;BME280;2218;51.408;7.208;2022-07-29T12:55:57;99791.72;;;23.98;46.54
4410;BME280;2218;51.408;7.208;2022-07-29T12:58:30;99785.56;;;23.98;46.21
4410;BME280;2218;51.408;7.208;2022-07-29T13:01:04;99783.75;;;23.98;46.13
4410;BME280;2218;51.408;7.208;2022-07-29T13:03:44;99778.44;;;23.98;46.54
4410;BME280;2218;51.408;7.208;2022-07-29T13:06:37;99781.09;;;23.98;46.35
4410;BME280;2218;51.408;7.208;2022-07-29T13:09:09;99786.41;;;23.98;46.49
4410;BME280;2218;51.408;7.208;2022-07-29T13:11:39;99782.75;;;23.99;46.76
4410;BME280;2218;51.408;7.208;2022-07-29T13:14:08;99797.72;;;24.01;46.67
4410;BME280;2218;51.408;7.208;2022-07-29T13:16:38;99786.25;;;24.00;46.22
4410;BME280;2218;51.408;7.208;2022-07-29T13:19:38;99788.06;;;23.99;46.20
4410;BME280;2218;51.408;7.208;2022-07-29T13:22:07;99789.75;;;24.01;46.38
4410;BME280;2218;51.408;7.208;2022-07-29T13:24:47;99790.59;;;24.01;46.52
4410;BME280;2218;51.408;7.208;2022-07-29T13:27:14;99791.41;;;24.02;46.09
4410;BME280;2218;51.408;7.208;2022-07-29T13:29:43;99798.56;;;24.01;46.42
4410;BME280;2218;51.408;7.208;2022-07-29T13:32:11;99794.06;;;24.02;46.67
4410;BME280;2218;51.408;7.208;2022-07-29T13:34:40;99798.44;;;24.03;46.16
4410;BME280;2218;51.408;7.208;2022-07-29T13:37:07;99797.59;;;24.02;46.52
4410;BME280;2218;51.408;7.208;2022-07-29T13:39:34;99801.09;;;24.03;46.31
4410;BME280;2218;51.408;7.208;2022-07-29T13:42:03;99802.75;;;24.04;46.35